Time;durP1;ratioP1;P1;durP2;ratioP2;P2;SDS_P1;SDS_P2;PMS_P1;PMS_P2;Temp;Humidity;BMP_temperature;BMP_pressure;BME280_temperature;BME280_humidity;BME280_pressure;Samples;Min_cycle;Max_cycle;Signal;HPM_P1;HPM_P2
2022/01/10 00:01:53;;;;;;;;;12.50;11.00;;;;;22.15;39.59;100892.22;5039728;28;45423;-71
2022/01/10 00:04:18;;;;;;;;;11.25;11.00;;;;;22.28;39.66;100915.47;5048712;28;46312;-72
2022/01/10 00:06:45;;;;;;;;;14.00;11.25;;;;;22.14;39.92;100899.38;5045169;28;45636;-72
2022/01/10 00:09:10;;;;;;;;;13.50;12.25;;;;;22.21;39.42;100912.72;5043353;28;45417;-71
2022/01/10 00:11:35;;;;;;;;;12.25;11.00;;;;;22.20;39.30;100920.84;5044756;28;45490;-71
2022/01/10 00:14:01;;;;;;;;;10.50;10.50;;;;;22.26;39.19;100928.06;5043163;28;46295;-72
2022/01/10 00:16:26;;;;;;;;;10.00;10.00;;;;;22.25;39.34;100929.88;5049590;28;45481;-71
2022/01/10 00:18:51;;;;;;;;;13.25;10.00;;;;;22.26;39.59;100928.91;5052314;28;45315;-71
2022/01/10 00:21:17;;;;;;;;;11.25;10.00;;;;;22.26;39.77;100926.25;5052651;28;45365;-71
2022/01/10 00:23:42;;;;;;;;;9.75;9.25;;;;;22.25;39.63;100931.75;5053739;28;46898;-71
2022/01/10 00:26:08;;;;;;;;;13.75;12.50;;;;;22.22;39.26;100930.28;5054545;28;45409;-71
2022/01/10 00:28:34;;;;;;;;;11.50;9.50;;;;;22.26;39.83;100928.06;5042270;28;45559;-71
2022/01/10 00:30:59;;;;;;;;;7.75;7.50;;;;;22.25;39.15;100926.44;5048565;28;45464;-71
2022/01/10 00:33:25;;;;;;;;;13.25;12.00;;;;;22.16;39.15;100902.66;5050045;28;45392;-71
2022/01/10 00:35:50;;;;;;;;;15.50;11.75;;;;;22.24;39.42;100915.00;5052172;28;45327;-71
2022/01/10 00:38:16;;;;;;;;;12.00;10.75;;;;;22.24;39.28;100930.91;5055101;28;45441;-71
2022/01/10 00:40:42;;;;;;;;;14.75;11.75;;;;;22.24;39.18;100940.69;5054145;28;45459;-71
2022/01/10 00:43:10;;;;;;;;;12.50;11.50;;;;;22.24;39.54;100944.16;5048777;28;46872;-72
2022/01/10 00:45:36;;;;;;;;;10.75;8.25;;;;;22.23;39.25;100939.03;5050995;28;45491;-72
2022/01/10 00:48:02;;;;;;;;;11.25;10.75;;;;;22.23;39.60;100941.69;5049963;28;45562;-72
2022/01/10 00:50:29;;;;;;;;;13.00;11.25;;;;;22.22;39.55;100953.28;5041736;28;45421;-71
2022/01/10 00:52:55;;;;;;;;;14.25;13.00;;;;;22.23;39.58;100960.22;5038674;28;46352;-72
2022/01/10 00:55:21;;;;;;;;;15.75;14.50;;;;;22.11;39.18;100943.94;5051588;28;45375;-71
2022/01/10 00:57:46;;;;;;;;;11.00;9.50;;;;;22.21;39.52;100963.06;5051120;28;45991;-71
2022/01/10 01:00:14;;;;;;;;;11.75;10.50;;;;;22.21;39.08;100967.53;5050649;28;45517;-72
2022/01/10 01:02:39;;;;;;;;;10.00;10.00;;;;;22.18;38.96;100968.72;5050991;28;47038;-71
2022/01/10 01:05:09;;;;;;;;;11.00;10.50;;;;;22.21;38.98;100978.13;5055586;28;45371;-72
2022/01/10 01:07:37;;;;;;;;;15.75;10.25;;;;;22.20;39.38;100977.31;5057231;28;45318;-72
2022/01/10 01:12:55;;;;;;;;;11.25;10.25;;;;;22.11;39.46;100973.09;5043362;28;45464;-72
2022/01/10 01:15:25;;;;;;;;;13.50;10.00;;;;;22.06;39.22;100957.72;5044841;28;45494;-71
2022/01/10 01:18:15;;;;;;;;;7.50;7.50;;;;;22.18;39.00;100985.44;5050061;28;45295;-71
2022/01/10 01:25:51;;;;;;;;;10.50;10.50;;;;;22.15;39.41;101001.69;5052591;28;45454;-72
2022/01/10 01:28:17;;;;;;;;;9.75;9.25;;;;;22.18;39.55;101005.81;5047329;28;45743;-71
2022/01/10 01:30:43;;;;;;;;;10.75;9.00;;;;;22.11;39.17;101003.06;5050400;28;45523;-72
2022/01/10 01:33:09;;;;;;;;;10.50;10.50;;;;;21.89;39.08;100978.19;5050300;28;45456;-72
2022/01/10 01:35:36;;;;;;;;;9.75;9.50;;;;;22.16;39.27;101013.13;5050526;28;45471;-72
2022/01/10 01:38:01;;;;;;;;;10.50;10.50;;;;;22.16;38.98;101018.44;5032228;28;45337;-72
2022/01/10 01:40:29;;;;;;;;;14.00;11.00;;;;;22.12;39.04;101007.34;5048234;28;45295;-71
2022/01/10 01:42:55;;;;;;;;;12.75;11.00;;;;;22.07;38.84;100996.44;5048993;28;47088;-72
2022/01/10 01:45:38;;;;;;;;;10.25;10.25;;;;;22.17;39.06;101020.09;5049768;28;45708;-71
2022/01/10 01:48:04;;;;;;;;;12.50;11.00;;;;;22.12;38.89;101017.16;5048995;28;45461;-71
2022/01/10 01:50:29;;;;;;;;;13.75;9.75;;;;;22.16;39.04;101021.91;5041322;28;45416;-72
2022/01/10 01:52:55;;;;;;;;;12.75;11.25;;;;;22.16;38.96;101029.03;5053040;28;46239;-72
2022/01/10 01:55:20;;;;;;;;;11.00;10.50;;;;;22.15;38.92;101043.25;5052231;28;45411;-72
2022/01/10 01:57:46;;;;;;;;;12.75;12.00;;;;;22.09;38.88;101026.28;5033023;28;45369;-72
2022/01/10 02:00:12;;;;;;;;;15.50;12.25;;;;;22.09;38.97;101036.03;5046362;28;45524;-72
2022/01/10 02:02:37;;;;;;;;;11.25;10.25;;;;;22.12;39.32;101049.75;5058677;28;46130;-71
2022/01/10 02:05:03;;;;;;;;;11.50;10.00;;;;;22.14;39.48;101050.41;5054290;28;45561;-72
2022/01/10 02:07:28;;;;;;;;;15.00;11.50;;;;;22.14;39.24;101053.06;5051893;28;45366;-71
2022/01/10 02:09:54;;;;;;;;;13.25;11.25;;;;;22.10;39.03;101062.34;5049110;28;45356;-72
2022/01/10 02:12:19;;;;;;;;;10.00;9.25;;;;;22.11;38.81;101066.66;5050529;28;45579;-72
2022/01/10 02:14:46;;;;;;;;;14.00;12.00;;;;;22.10;39.21;101067.66;5049696;28;45434;-72
2022/01/10 02:17:14;;;;;;;;;6.50;6.50;;;;;22.00;39.17;101053.78;5052952;28;45385;-71
2022/01/10 02:19:39;;;;;;;;;9.25;8.25;;;;;22.15;39.06;101085.66;5052279;28;45532;-72
2022/01/10 02:22:05;;;;;;;;;13.25;13.00;;;;;22.14;38.95;101094.63;5050093;28;45434;-71
2022/01/10 02:24:30;;;;;;;;;13.00;11.25;;;;;22.13;38.81;101099.09;5049229;28;45438;-72
2022/01/10 02:26:56;;;;;;;;;12.75;9.25;;;;;22.13;38.99;101101.75;5049502;28;45370;-72
2022/01/10 02:29:21;;;;;;;;;11.00;10.75;;;;;22.14;38.84;101102.59;5051129;28;45394;-72
2022/01/10 02:31:46;;;;;;;;;11.00;11.00;;;;;22.13;39.33;101095.63;5053181;28;46195;-72
2022/01/10 02:34:17;;;;;;;;;13.50;10.00;;;;;22.12;39.07;101100.09;5055632;28;45369;-72
2022/01/10 02:36:43;;;;;;;;;13.25;12.00;;;;;22.13;39.44;101100.91;5052076;28;45495;-71
2022/01/10 02:39:10;;;;;;;;;12.00;11.00;;;;;22.06;38.75;101090.22;5044961;28;46683;-71
2022/01/10 02:41:42;;;;;;;;;10.50;10.50;;;;;22.12;38.99;101099.28;5047737;28;46167;-71
2022/01/10 02:44:13;;;;;;;;;12.75;10.75;;;;;22.11;38.93;101113.53;5036849;28;45387;-71
2022/01/10 02:46:40;;;;;;;;;11.00;10.25;;;;;22.11;39.24;101116.19;5055318;28;45351;-71
2022/01/10 02:49:14;;;;;;;;;10.50;10.50;;;;;22.12;38.77;101123.13;5050214;28;45420;-72
2022/01/10 02:51:40;;;;;;;;;10.50;9.75;;;;;22.11;39.05;101116.19;5044299;28;45398;-72
2022/01/10 02:54:05;;;;;;;;;13.50;12.50;;;;;22.10;38.82;101106.56;5047736;28;45817;-72
2022/01/10 02:56:30;;;;;;;;;14.00;14.00;;;;;22.09;39.04;101116.34;5049504;28;45275;-71
2022/01/10 02:58:56;;;;;;;;;10.50;10.50;;;;;22.10;39.24;101118.00;5052919;28;45299;-72
2022/01/10 03:01:21;;;;;;;;;12.00;10.50;;;;;22.09;38.89;101129.63;5051293;28;45426;-71
2022/01/10 03:03:47;;;;;;;;;11.25;10.25;;;;;22.04;38.90;101124.00;5042855;28;45413;-72
2022/01/10 03:06:13;;;;;;;;;13.75;12.00;;;;;22.06;39.11;101130.78;5046907;28;45315;-71
2022/01/10 03:08:38;;;;;;;;;11.00;11.00;;;;;22.09;39.17;101142.84;5022702;28;45401;-72
2022/01/10 03:11:04;;;;;;;;;11.00;11.00;;;;;22.09;38.68;101153.47;5049447;28;47351;-72
2022/01/10 03:13:29;;;;;;;;;13.75;11.25;;;;;22.09;38.64;101152.63;5043743;28;45303;-71
2022/01/10 03:15:54;;;;;;;;;11.00;10.00;;;;;22.09;38.85;101161.41;5048855;28;45406;-72
2022/01/10 03:18:20;;;;;;;;;10.75;10.00;;;;;22.04;39.32;101143.34;5049055;28;45607;-72
2022/01/10 03:20:45;;;;;;;;;14.50;10.00;;;;;22.09;38.64;101152.63;5053049;28;47103;-71
2022/01/10 03:23:11;;;;;;;;;10.50;10.50;;;;;22.09;38.54;101156.09;5051143;28;45371;-72
2022/01/10 03:25:36;;;;;;;;;11.25;9.25;;;;;21.99;39.00;101140.41;5038331;28;45469;-72
2022/01/10 03:28:02;;;;;;;;;14.00;13.00;;;;;22.09;38.78;101155.28;5039432;28;45488;-72
2022/01/10 03:30:28;;;;;;;;;10.75;9.75;;;;;22.04;38.90;101153.16;5041753;28;47238;-72
2022/01/10 03:32:56;;;;;;;;;12.00;9.00;;;;;22.10;38.61;101171.00;5042794;28;45476;-71
2022/01/10 03:35:21;;;;;;;;;14.50;11.25;;;;;22.09;38.79;101179.97;5041413;28;45450;-72
2022/01/10 03:37:47;;;;;;;;;9.50;8.50;;;;;22.09;38.55;101187.91;5046517;28;45233;-72
2022/01/10 03:40:12;;;;;;;;;9.50;9.50;;;;;22.10;38.51;101183.41;5048027;28;45983;-71
2022/01/10 03:42:38;;;;;;;;;10.00;9.00;;;;;22.09;39.02;101182.59;5046398;28;45354;-72
2022/01/10 03:45:06;;;;;;;;;10.25;10.25;;;;;21.99;38.68;101171.38;5046085;28;45388;-71
2022/01/10 03:47:31;;;;;;;;;11.50;10.50;;;;;22.05;39.13;101190.06;5036206;28;45514;-72
2022/01/10 03:49:56;;;;;;;;;10.50;10.50;;;;;22.00;38.80;101180.97;5061170;28;46309;-72
2022/01/10 03:52:23;;;;;;;;;11.50;11.50;;;;;22.00;38.84;101197.69;5043116;28;45374;-72
2022/01/10 03:54:49;;;;;;;;;10.50;10.50;;;;;22.07;38.59;101198.66;5048967;28;45442;-72
2022/01/10 03:57:14;;;;;;;;;13.00;10.00;;;;;22.04;38.92;101187.59;5050172;28;45491;-71
2022/01/10 03:59:40;;;;;;;;;12.50;9.25;;;;;21.98;38.47;101177.66;5051734;28;47261;-71
2022/01/10 04:02:05;;;;;;;;;11.00;9.50;;;;;22.05;38.74;101191.88;5054491;28;45603;-71
2022/01/10 04:04:33;;;;;;;;;9.75;8.00;;;;;22.03;39.00;101194.72;5034962;28;45546;-72
2022/01/10 04:06:58;;;;;;;;;12.75;12.75;;;;;22.05;38.65;101197.19;5053002;28;45440;-72
2022/01/10 04:09:24;;;;;;;;;10.00;9.25;;;;;22.05;38.93;101202.47;5053144;28;46484;-71
2022/01/10 04:11:49;;;;;;;;;10.00;8.75;;;;;21.99;39.03;101193.38;5049550;28;45343;-72
2022/01/10 04:14:15;;;;;;;;;10.50;9.75;;;;;22.05;38.97;101207.78;5051321;28;45507;-71
2022/01/10 04:16:40;;;;;;;;;10.50;10.25;;;;;21.94;38.89;101208.97;5067228;27;45498;-72
2022/01/10 04:19:06;;;;;;;;;12.25;9.75;;;;;22.05;38.50;101231.63;5052282;28;46031;-72
2022/01/10 04:21:32;;;;;;;;;9.50;9.50;;;;;21.97;38.71;101227.19;5051289;28;45473;-71
2022/01/10 04:23:57;;;;;;;;;10.00;10.00;;;;;22.01;38.54;101239.09;5051305;28;45566;-71
2022/01/10 04:26:23;;;;;;;;;9.25;8.25;;;;;21.99;38.69;101234.97;5052225;28;45597;-72
2022/01/10 04:28:48;;;;;;;;;6.00;5.75;;;;;21.92;39.04;101224.22;5048029;28;46032;-72
2022/01/10 04:31:14;;;;;;;;;11.50;9.50;;;;;21.96;38.88;101223.69;5042515;28;45490;-71
2022/01/10 04:33:39;;;;;;;;;12.00;10.75;;;;;22.03;38.61;101231.81;5042378;28;45487;-72
2022/01/10 04:36:05;;;;;;;;;12.00;9.75;;;;;21.88;38.40;101205.19;5042676;28;45401;-72
2022/01/10 04:38:30;;;;;;;;;11.75;11.00;;;;;21.91;38.73;101209.34;5041819;28;46393;-72
2022/01/10 04:40:56;;;;;;;;;11.00;9.75;;;;;22.03;38.93;101238.91;5047579;28;45259;-71
2022/01/10 04:43:21;;;;;;;;;15.75;9.50;;;;;22.02;38.98;101243.38;5053528;28;45450;-72
2022/01/10 04:45:47;;;;;;;;;10.00;8.75;;;;;21.92;38.47;101233.00;5055695;28;45346;-72
2022/01/10 04:48:15;;;;;;;;;10.75;10.25;;;;;22.03;38.96;101260.13;5054971;28;47067;-71
2022/01/10 04:53:24;;;;;;;;;12.25;11.25;;;;;22.04;38.94;101261.78;5053198;28;45492;-72
2022/01/10 04:55:50;;;;;;;;;9.25;8.00;;;;;21.96;38.68;101246.75;5049367;28;45645;-72
2022/01/10 04:58:15;;;;;;;;;10.75;9.25;;;;;22.00;38.57;101249.84;5052703;28;46449;-72
2022/01/10 05:00:40;;;;;;;;;10.25;10.25;;;;;22.04;38.25;101257.28;5046108;28;45501;-71
2022/01/10 05:03:06;;;;;;;;;9.25;8.50;;;;;22.05;38.37;101252.81;5042061;28;45489;-72
2022/01/10 05:05:31;;;;;;;;;11.00;9.50;;;;;22.04;38.62;101253.84;5029856;28;45621;-72
2022/01/10 05:07:56;;;;;;;;;10.00;9.25;;;;;22.04;38.28;101272.38;5054243;28;47083;-72
2022/01/10 05:10:22;;;;;;;;;9.25;9.25;;;;;22.05;38.29;101279.31;5054299;28;46827;-72
2022/01/10 05:12:47;;;;;;;;;11.00;9.25;;;;;22.00;38.80;101276.34;5046518;28;45468;-72
2022/01/10 05:15:12;;;;;;;;;11.00;10.00;;;;;22.04;38.98;101294.38;5050548;28;45677;-72
2022/01/10 05:17:38;;;;;;;;;9.50;9.50;;;;;21.98;38.95;101292.44;5048310;28;51400;-72
2022/01/10 05:20:05;;;;;;;;;9.25;8.50;;;;;21.98;38.34;101294.25;5053747;28;45360;-72
2022/01/10 05:22:30;;;;;;;;;10.50;10.00;;;;;22.04;38.40;101306.81;5056511;28;45357;-72
2022/01/10 05:24:55;;;;;;;;;11.00;11.00;;;;;22.04;38.52;101312.13;5048366;28;45326;-72
2022/01/10 05:27:21;;;;;;;;;10.00;9.50;;;;;22.04;38.76;101306.81;5034872;28;46899;-71
2022/01/10 05:29:46;;;;;;;;;14.00;12.00;;;;;22.03;38.78;101315.75;5048345;28;45340;-72
2022/01/10 05:32:12;;;;;;;;;11.25;9.75;;;;;22.03;38.27;101318.41;5054441;28;45553;-72
2022/01/10 05:34:37;;;;;;;;;9.00;9.00;;;;;22.02;38.63;101325.53;5056385;28;45351;-72
2022/01/10 05:37:02;;;;;;;;;9.75;9.50;;;;;22.02;38.38;101324.69;5055178;28;46047;-72
2022/01/10 05:39:28;;;;;;;;;11.75;10.50;;;;;22.02;38.77;101324.69;5054591;28;45386;-71
2022/01/10 05:41:53;;;;;;;;;8.50;8.50;;;;;22.02;38.71;101327.34;5049163;28;45457;-73
2022/01/10 05:44:18;;;;;;;;;9.00;8.25;;;;;22.02;38.55;101333.47;5052486;28;45457;-71
2022/01/10 05:46:46;;;;;;;;;7.25;7.25;;;;;22.02;38.30;101332.63;5053456;28;46297;-72
2022/01/10 05:49:13;;;;;;;;;12.00;11.00;;;;;22.02;38.78;101337.94;5041138;28;45510;-72
2022/01/10 05:51:38;;;;;;;;;8.25;8.25;;;;;22.02;38.36;101338.78;5046928;28;45396;-72
2022/01/10 05:54:06;;;;;;;;;9.50;9.00;;;;;22.03;38.83;101350.22;5046185;28;45359;-72
2022/01/10 05:56:33;;;;;;;;;10.75;8.75;;;;;22.03;38.35;101352.84;5039465;28;47231;-72
2022/01/10 05:58:59;;;;;;;;;9.75;9.75;;;;;22.02;38.31;101344.06;5037306;28;45299;-72
2022/01/10 06:01:24;;;;;;;;;10.50;9.00;;;;;21.96;38.42;101348.22;5055402;28;45449;-72
2022/01/10 06:03:50;;;;;;;;;10.00;10.00;;;;;21.93;38.52;101351.22;5051096;28;45455;-72
2022/01/10 06:06:15;;;;;;;;;10.00;9.25;;;;;22.03;38.88;101380.19;5049570;28;45988;-71
2022/01/10 06:08:40;;;;;;;;;9.25;7.75;;;;;22.03;38.40;101388.13;5050948;28;45510;-72
2022/01/10 06:11:06;;;;;;;;;13.75;8.75;;;;;22.02;38.93;101381.16;5038680;28;45493;-72
2022/01/10 06:13:31;;;;;;;;;13.00;9.25;;;;;22.06;38.59;101389.63;5052632;28;45388;-72
2022/01/10 06:15:57;;;;;;;;;9.50;8.00;;;;;22.05;38.79;101391.44;5053701;28;45929;-72
2022/01/10 06:18:22;;;;;;;;;10.25;10.00;;;;;22.07;38.76;101407.16;5054331;28;45492;-72
2022/01/10 06:20:47;;;;;;;;;12.75;11.00;;;;;21.98;38.70;101397.56;5054187;28;45484;-71
2022/01/10 06:23:13;;;;;;;;;11.25;9.25;;;;;22.00;38.58;101414.97;5054501;28;45649;-72
2022/01/10 06:25:39;;;;;;;;;9.00;9.00;;;;;22.07;38.33;101420.41;5055150;28;45943;-72
2022/01/10 06:28:06;;;;;;;;;9.50;8.25;;;;;22.04;38.65;101404.88;5048945;28;45421;-71
2022/01/10 06:30:32;;;;;;;;;9.75;9.75;;;;;22.10;38.16;101424.56;5043118;28;45396;-72
2022/01/10 06:32:57;;;;;;;;;10.00;9.00;;;;;22.11;38.12;101426.22;5040754;28;45368;-72
2022/01/10 06:35:23;;;;;;;;;11.00;11.00;;;;;22.11;38.56;101420.91;5037211;28;45478;-72
2022/01/10 06:37:48;;;;;;;;;8.00;8.00;;;;;22.12;38.18;101426.03;5035762;28;45213;-71
2022/01/10 06:40:14;;;;;;;;;10.25;10.25;;;;;22.04;38.67;101410.16;5040419;28;45398;-72
2022/01/10 06:42:40;;;;;;;;;11.00;8.75;;;;;22.12;38.30;101431.34;5047689;28;45528;-72
2022/01/10 06:45:06;;;;;;;;;8.50;8.50;;;;;22.12;38.17;101430.53;5051453;28;46076;-72
2022/01/10 06:47:32;;;;;;;;;9.00;8.50;;;;;22.13;38.38;101453.38;5049568;28;45369;-72
2022/01/10 06:49:57;;;;;;;;;10.50;8.75;;;;;22.02;38.76;101438.63;5053208;28;45520;-72
2022/01/10 06:52:22;;;;;;;;;8.00;7.25;;;;;22.14;38.33;101468.28;5051221;28;45342;-72
2022/01/10 06:54:48;;;;;;;;;10.25;8.75;;;;;22.12;38.53;101457.84;5048034;28;46214;-72
2022/01/10 06:57:13;;;;;;;;;9.25;9.25;;;;;21.98;38.50;101448.75;5048938;28;45355;-72
2022/01/10 06:59:38;;;;;;;;;9.50;8.25;;;;;22.14;38.55;101486.84;5051701;28;45366;-71
2022/01/10 07:02:04;;;;;;;;;9.25;9.00;;;;;22.13;38.06;101493.97;5037333;28;45390;-72
2022/01/10 07:04:29;;;;;;;;;11.00;8.00;;;;;22.03;38.14;101482.69;5050823;28;47235;-72
2022/01/10 07:06:55;;;;;;;;;9.75;8.00;;;;;22.14;38.14;101500.94;5047338;28;47097;-72
2022/01/10 07:09:21;;;;;;;;;10.50;8.75;;;;;22.15;38.54;101505.22;5049690;28;45459;-72
2022/01/10 07:11:47;;;;;;;;;9.00;7.00;;;;;22.16;38.05;101504.25;5050480;28;45303;-72
2022/01/10 07:14:13;;;;;;;;;10.75;8.00;;;;;22.16;38.44;101509.53;5047143;28;46196;-72
2022/01/10 07:16:41;;;;;;;;;11.75;9.00;;;;;22.17;38.44;101520.97;5046646;28;45363;-73
2022/01/10 07:19:06;;;;;;;;;8.00;8.00;;;;;22.14;38.47;101518.66;5040810;28;45433;-71
2022/01/10 07:21:32;;;;;;;;;14.25;8.75;;;;;22.03;37.79;101517.97;5037596;28;45670;-72
2022/01/10 07:23:58;;;;;;;;;9.75;9.00;;;;;22.12;38.19;101537.34;5048590;28;46413;-72
2022/01/10 07:26:23;;;;;;;;;10.75;10.00;;;;;22.03;38.29;101512.69;5048998;28;45567;-71
2022/01/10 07:28:49;;;;;;;;;12.75;11.00;;;;;22.13;38.18;101528.41;5044750;28;45450;-72
2022/01/10 07:31:14;;;;;;;;;10.00;8.50;;;;;22.14;38.34;101540.69;5031657;28;45391;-71
2022/01/10 07:33:40;;;;;;;;;9.75;8.00;;;;;22.06;38.11;101533.56;5051318;28;47068;-71
2022/01/10 07:36:05;;;;;;;;;9.75;8.00;;;;;22.05;38.26;101541.66;5045617;28;48919;-71
2022/01/10 07:38:36;;;;;;;;;11.50;10.75;;;;;22.13;37.03;101554.91;5051043;28;45516;-72
2022/01/10 07:41:06;;;;;;;;;17.50;14.50;;;;;22.04;36.63;101550.59;5050512;28;45557;-72
2022/01/10 07:43:33;;;;;;;;;18.00;16.50;;;;;21.79;35.46;101542.56;5053007;28;46091;-72
2022/01/10 07:45:59;;;;;;;;;13.00;13.00;;;;;21.83;35.56;101575.69;5061914;28;45268;-71
2022/01/10 07:48:28;;;;;;;;;16.75;14.75;;;;;21.74;35.64;101594.22;5054822;28;45341;-72
2022/01/10 07:50:54;;;;;;;;;13.50;12.25;;;;;21.63;36.16;101578.59;5046961;28;45474;-71
2022/01/10 07:53:19;;;;;;;;;12.50;11.75;;;;;21.74;36.60;101601.31;5049742;28;45915;-72
2022/01/10 07:55:45;;;;;;;;;12.75;12.50;;;;;21.75;36.65;101608.28;5050796;28;45502;-71
2022/01/10 07:58:10;;;;;;;;;19.00;14.50;;;;;21.78;36.89;101617.72;5049796;28;45988;-71
2022/01/10 08:00:36;;;;;;;;;4.75;0.00;;;;;21.79;36.65;101620.22;5052367;28;45430;-71
2022/01/10 08:03:01;;;;;;;;;11.00;11.00;;;;;21.82;36.79;101629.66;5047888;28;46487;-71
2022/01/10 08:05:27;;;;;;;;;10.25;10.25;;;;;21.84;37.17;101633.81;5050036;28;47275;-71
2022/01/10 08:07:52;;;;;;;;;10.25;9.00;;;;;21.87;37.01;101639.75;5036778;28;45905;-71
2022/01/10 08:10:17;;;;;;;;;10.75;9.50;;;;;21.82;36.83;101633.13;5038886;28;45514;-71
2022/01/10 08:12:43;;;;;;;;;11.50;8.50;;;;;21.91;37.14;101651.75;5036471;28;45555;-71
2022/01/10 08:15:09;;;;;;;;;10.00;9.75;;;;;21.91;36.83;101655.22;5040963;28;45595;-71
2022/01/10 08:17:35;;;;;;;;;9.00;9.00;;;;;21.89;37.06;101637.81;5056832;28;45700;-71
2022/01/10 08:20:01;;;;;;;;;9.00;9.00;;;;;21.89;37.10;101645.75;5054185;28;45428;-71
2022/01/10 08:22:26;;;;;;;;;10.00;9.25;;;;;21.91;36.79;101651.75;5055894;28;45422;-71
2022/01/10 08:24:52;;;;;;;;;9.50;8.00;;;;;21.95;36.89;101659.22;5049338;28;45875;-71
2022/01/10 08:27:18;;;;;;;;;10.75;9.50;;;;;21.97;37.08;101667.00;5048902;28;45395;-71
2022/01/10 08:29:43;;;;;;;;;10.50;9.00;;;;;21.89;37.30;101659.84;5048780;28;45446;-71
2022/01/10 08:32:09;;;;;;;;;8.25;8.25;;;;;21.98;37.18;101678.44;5056040;28;45369;-71
2022/01/10 08:34:35;;;;;;;;;11.00;9.75;;;;;21.97;37.31;101688.19;5057767;28;45256;-71
2022/01/10 08:37:00;;;;;;;;;9.50;9.50;;;;;21.99;37.59;101696.81;5043467;28;45666;-71
2022/01/10 08:39:26;;;;;;;;;9.00;8.75;;;;;21.98;36.93;101691.69;5046060;28;45456;-71
2022/01/10 08:41:51;;;;;;;;;10.50;7.25;;;;;22.00;37.42;101695.00;5050932;28;45430;-71
2022/01/10 08:44:17;;;;;;;;;11.00;8.00;;;;;22.00;37.00;101705.59;5039508;28;45413;-71
2022/01/10 08:46:44;;;;;;;;;10.00;9.00;;;;;21.99;36.88;101720.66;5037261;28;45411;-71
2022/01/10 08:49:12;;;;;;;;;7.75;7.00;;;;;21.96;37.21;101715.69;5052037;28;45319;-71
2022/01/10 08:51:38;;;;;;;;;10.25;8.75;;;;;21.94;37.25;101705.25;5044746;28;47133;-71
2022/01/10 08:54:04;;;;;;;;;10.75;10.00;;;;;22.02;37.59;101722.16;5050176;28;46060;-71
2022/01/10 08:56:30;;;;;;;;;9.50;8.75;;;;;22.00;37.38;101714.38;5052151;28;45571;-71
2022/01/10 08:58:55;;;;;;;;;10.25;9.00;;;;;22.01;37.50;101718.69;5053937;28;45529;-71
2022/01/10 09:01:21;;;;;;;;;8.00;7.75;;;;;22.02;37.63;101735.41;5058929;28;47123;-71
2022/01/10 09:03:47;;;;;;;;;10.00;7.50;;;;;21.88;37.87;101718.31;5045684;28;45448;-71
2022/01/10 09:06:12;;;;;;;;;8.50;7.50;;;;;21.94;37.49;101730.91;5047439;28;48627;-71
2022/01/10 09:08:40;;;;;;;;;10.50;10.50;;;;;22.03;37.76;101740.56;5041448;28;45517;-71
2022/01/10 09:11:06;;;;;;;;;11.00;9.25;;;;;21.98;37.54;101737.56;5037572;28;47087;-71
2022/01/10 09:13:32;;;;;;;;;10.00;8.00;;;;;21.93;37.38;101740.69;5041648;28;45351;-71
2022/01/10 09:15:57;;;;;;;;;12.50;9.00;;;;;21.96;37.42;101736.91;5054215;28;45282;-71
2022/01/10 09:18:23;;;;;;;;;15.00;12.00;;;;;22.04;37.36;101759.94;5046822;28;45300;-71
2022/01/10 09:20:50;;;;;;;;;14.00;9.75;;;;;22.05;37.20;101769.53;5040692;28;46203;-71
2022/01/10 09:23:16;;;;;;;;;8.50;8.50;;;;;22.04;37.30;101760.75;5053308;28;45789;-71
2022/01/10 09:25:42;;;;;;;;;8.00;8.00;;;;;21.99;37.43;101754.28;5051880;28;45317;-70
2022/01/10 09:28:07;;;;;;;;;11.75;9.00;;;;;22.04;37.07;101779.31;5051479;28;45398;-72
2022/01/10 09:30:32;;;;;;;;;9.00;9.00;;;;;22.06;37.09;101790.59;5049270;28;45985;-71
2022/01/10 09:32:58;;;;;;;;;10.25;9.00;;;;;22.06;37.69;101792.41;5050138;28;45310;-71
2022/01/10 09:35:24;;;;;;;;;9.25;9.25;;;;;22.07;37.41;101792.25;5038692;28;45521;-70
2022/01/10 09:37:50;;;;;;;;;7.25;6.25;;;;;22.06;37.31;101803.84;5052908;28;45425;-71
2022/01/10 09:40:18;;;;;;;;;8.25;8.00;;;;;22.07;37.69;101805.50;5046548;28;46092;-71
2022/01/10 09:42:45;;;;;;;;;9.75;9.75;;;;;21.97;37.56;101791.53;5044016;28;45555;-71
2022/01/10 09:45:10;;;;;;;;;8.75;7.25;;;;;22.03;37.63;101809.47;5046921;28;45536;-71
2022/01/10 09:47:37;;;;;;;;;7.50;7.50;;;;;22.10;37.14;101806.16;5041092;28;45845;-71
2022/01/10 09:50:06;;;;;;;;;8.75;8.75;;;;;22.09;37.34;101808.00;5054509;28;45426;-71
2022/01/10 09:52:32;;;;;;;;;9.50;9.50;;;;;22.10;37.65;101811.47;5052058;28;45532;-71
2022/01/10 09:54:57;;;;;;;;;7.25;6.75;;;;;22.10;37.59;101814.13;5054323;28;45400;-71
2022/01/10 09:57:22;;;;;;;;;7.00;7.00;;;;;22.10;37.68;101835.31;5049281;28;45616;-71
2022/01/10 09:59:48;;;;;;;;;11.25;8.00;;;;;22.07;37.14;101831.16;5051787;28;46029;-71
2022/01/10 10:02:15;;;;;;;;;9.50;8.00;;;;;22.10;37.74;101835.31;5043825;28;45463;-71
2022/01/10 10:04:41;;;;;;;;;8.25;8.25;;;;;22.09;37.49;101831.03;5048776;28;45530;-71
2022/01/10 10:07:07;;;;;;;;;7.50;7.50;;;;;22.10;37.94;101843.28;5053529;28;45584;-71
2022/01/10 10:09:34;;;;;;;;;8.00;8.00;;;;;22.10;37.93;101849.41;5050671;28;46351;-72
2022/01/10 10:12:01;;;;;;;;;10.50;6.75;;;;;22.10;37.24;101852.06;5049267;28;45367;-71
2022/01/10 10:14:27;;;;;;;;;8.00;7.50;;;;;22.10;37.73;101857.38;5052041;28;45320;-71
2022/01/10 10:16:56;;;;;;;;;7.00;6.00;;;;;22.11;37.58;101874.09;5066759;28;45499;-71
2022/01/10 10:19:29;;;;;;;;;7.75;7.75;;;;;22.10;37.50;101870.63;5051830;28;47182;-70
2022/01/10 10:21:57;;;;;;;;;7.75;7.00;;;;;22.11;37.41;101866.16;5045549;28;45595;-70
2022/01/10 10:24:24;;;;;;;;;8.25;8.00;;;;;22.08;37.78;101867.28;5049341;28;45288;-71
2022/01/10 10:26:50;;;;;;;;;7.75;7.00;;;;;22.11;37.35;101869.63;5049963;28;45473;-71
2022/01/10 10:29:18;;;;;;;;;7.25;6.25;;;;;22.10;37.36;101883.88;5042154;28;46632;-71
2022/01/10 10:31:46;;;;;;;;;8.75;6.50;;;;;22.03;37.31;101874.88;5036666;28;46474;-71
2022/01/10 10:34:19;;;;;;;;;8.00;6.75;;;;;22.12;37.46;101878.44;5040117;28;45327;-71
2022/01/10 10:36:46;;;;;;;;;6.00;6.00;;;;;22.11;37.63;101880.25;5049303;28;45439;-72
2022/01/10 10:39:11;;;;;;;;;9.25;5.75;;;;;22.12;37.48;101881.06;5049785;28;47243;-71
2022/01/10 10:41:38;;;;;;;;;6.50;6.50;;;;;22.11;37.39;101885.53;5049220;28;45501;-71
2022/01/10 10:44:05;;;;;;;;;9.50;8.50;;;;;22.12;37.32;101878.44;5054026;28;45332;-71
2022/01/10 10:46:30;;;;;;;;;8.00;7.25;;;;;22.11;37.72;101874.94;5051516;28;45316;-71
2022/01/10 10:49:04;;;;;;;;;10.00;8.50;;;;;22.12;37.09;101873.94;5037809;28;46832;-71
2022/01/10 10:51:32;;;;;;;;;11.00;8.25;;;;;22.07;37.22;101865.63;5045596;28;45336;-71
2022/01/10 10:54:04;;;;;;;;;8.75;7.75;;;;;22.13;37.35;101877.41;5049063;28;45382;-71
2022/01/10 10:56:39;;;;;;;;;7.00;6.00;;;;;22.03;37.41;101861.63;5050333;28;45542;-70
2022/01/10 10:59:07;;;;;;;;;8.00;8.00;;;;;22.13;37.63;101880.06;5052144;28;46008;-71
2022/01/10 11:01:36;;;;;;;;;10.00;7.75;;;;;22.12;37.07;101889.84;5058512;28;45537;-71
2022/01/10 11:04:03;;;;;;;;;7.75;6.00;;;;;22.12;37.59;101897.78;5044571;28;45489;-70
2022/01/10 11:06:33;;;;;;;;;8.50;7.25;;;;;22.13;37.11;101896.81;5049025;28;45251;-71
2022/01/10 11:09:04;;;;;;;;;5.75;5.75;;;;;22.14;37.68;101897.66;5049604;28;45658;-71
2022/01/10 11:11:30;;;;;;;;;8.00;7.25;;;;;22.03;37.05;101883.66;5051178;28;45324;-70
2022/01/10 11:13:58;;;;;;;;;8.00;8.00;;;;;22.06;37.32;101893.13;5049086;28;45303;-71
2022/01/10 11:16:24;;;;;;;;;7.50;7.50;;;;;22.15;37.48;101901.94;5046778;28;45457;-71
2022/01/10 11:18:49;;;;;;;;;7.50;7.25;;;;;22.04;37.66;101901.22;5052729;28;45474;-71
2022/01/10 11:21:16;;;;;;;;;6.00;6.00;;;;;22.15;37.38;101918.69;5053201;28;45448;-71
2022/01/10 11:23:44;;;;;;;;;10.00;7.00;;;;;22.13;37.53;101918.00;5049381;28;45450;-71